Terminal Aerodrome Forecast
Issued by NWS Brownsville, TX

Home | Current Version | Previous Version | Text Only | Print | Product List | Glossary On
Versions: 1 2 3 4 5 6 7 8 9 10 11 12 13 14 15 16
000
FTUS44 KBRO 310100 AAA
TAFBRO
TAF AMD
KBRO 310104Z 3101/3124 13016KT P6SM SCT020
      TEMPO 3101/3103 BKN020
     FM310600 13010KT P6SM SCT020
     FM310900 15006KT P6SM SCT020
     FM311400 17012KT P6SM SKC
     FM311600 16016G23KT P6SM FEW250=

USA.gov is the U.S. government's official web portal to all federal, state and local government web resources and services.